TimeEDT,TemperatureF,Dew PointF,Humidity,Sea Level PressureIn,VisibilityMPH,Wind Direction,Wind SpeedMPH,Gust SpeedMPH,PrecipitationIn,Events,Conditions,WindDirDegrees,DateUTC
12:53 AM,59.0,55.4,88,30.29,10.0,Calm,Calm,-,N/A,,Overcast,0,2012-10-14 04:53:00
1:53 AM,55.9,54.0,93,30.27,10.0,Calm,Calm,-,N/A,,Clear,0,2012-10-14 05:53:00
2:53 AM,57.0,54.0,89,30.27,10.0,Calm,Calm,-,N/A,,Mostly Cloudy,0,2012-10-14 06:53:00
3:53 AM,55.9,54.0,93,30.25,10.0,Calm,Calm,-,N/A,,Mostly Cloudy,0,2012-10-14 07:53:00
4:53 AM,55.0,53.1,93,30.23,10.0,Calm,Calm,-,N/A,,Clear,0,2012-10-14 08:53:00
5:53 AM,54.0,52.0,93,30.22,10.0,Calm,Calm,-,N/A,,Clear,0,2012-10-14 09:53:00
6:53 AM,53.1,52.0,96,30.22,10.0,Calm,Calm,-,N/A,,Clear,0,2012-10-14 10:53:00
7:53 AM,54.0,52.0,93,30.24,10.0,Calm,Calm,-,N/A,,Clear,0,2012-10-14 11:53:00
8:53 AM,60.1,55.0,83,30.25,10.0,North,3.5,-,N/A,,Clear,10,2012-10-14 12:53:00
9:53 AM,64.9,57.9,78,30.23,10.0,East,4.6,-,N/A,,Clear,80,2012-10-14 13:53:00
10:53 AM,71.1,60.1,68,30.23,10.0,South,4.6,-,N/A,,Clear,170,2012-10-14 14:53:00
11:53 AM,73.0,62.1,68,30.22,10.0,South,4.6,-,N/A,,Scattered Clouds,180,2012-10-14 15:53:00
12:53 PM,79.0,64.9,62,30.18,10.0,SE,9.2,-,N/A,,Clear,140,2012-10-14 16:53:00
1:53 PM,78.1,64.0,62,30.16,10.0,Calm,Calm,-,N/A,,Overcast,0,2012-10-14 17:53:00
2:53 PM,80.1,64.9,60,30.14,10.0,Variable,3.5,-,0.00,,Overcast,0,2012-10-14 18:53:00
3:53 PM,80.6,64.4,58,30.11,10.0,ENE,3.5,-,N/A,,Mostly Cloudy,70,2012-10-14 19:53:00
4:53 PM,75.0,68.0,79,30.09,10.0,NNW,3.5,-,0.06,,Overcast,340,2012-10-14 20:53:00
5:53 PM,73.9,68.0,82,30.09,10.0,SSE,3.5,-,N/A,,Overcast,160,2012-10-14 21:53:00
6:53 PM,71.1,66.9,87,30.08,10.0,SSE,4.6,-,N/A,,Overcast,160,2012-10-14 22:53:00
7:53 PM,70.0,66.9,90,30.08,10.0,Calm,Calm,-,0.00,,Overcast,0,2012-10-14 23:53:00
8:53 PM,70.0,66.0,87,30.07,10.0,SE,8.1,-,N/A,,Scattered Clouds,140,2012-10-15 00:53:00
9:53 PM,68.0,66.0,93,30.06,10.0,SE,6.9,-,N/A,,Partly Cloudy,130,2012-10-15 01:53:00
10:53 PM,68.0,66.0,93,30.04,10.0,SSE,6.9,-,N/A,,Clear,150,2012-10-15 02:53:00
11:53 PM,66.0,64.9,96,30.05,10.0,Calm,Calm,-,N/A,,Scattered Clouds,0,2012-10-15 03:53:00